sensor_id;sensor_type;location;lat;lon;timestamp;pressure;altitude;pressure_sealevel;temperature;humidity
72116;BME280;59991;52.140;5.428;2023-04-02T00:01:37;101253.84;;;5.89;100.00
72116;BME280;59991;52.140;5.428;2023-04-02T00:03:24;101255.44;;;5.90;100.00
72116;BME280;59991;52.140;5.428;2023-04-02T00:04:29;101262.75;;;5.89;100.00
72116;BME280;59991;52.140;5.428;2023-04-02T00:05:47;101269.31;;;5.88;100.00
72116;BME280;59991;52.140;5.428;2023-04-02T00:07:23;101273.88;;;5.88;100.00
72116;BME280;59991;52.140;5.428;2023-04-02T00:08:03;101273.09;;;5.87;100.00
72116;BME280;59991;52.140;5.428;2023-04-02T00:08:40;101278.06;;;5.85;100.00
72116;BME280;59991;52.140;5.428;2023-04-02T00:09:43;101278.84;;;5.86;100.00
72116;BME280;59991;52.140;5.428;2023-04-02T00:10:38;101272.63;;;5.85;100.00
72116;BME280;59991;52.140;5.428;2023-04-02T00:11:26;101267.56;;;5.84;100.00
72116;BME280;59991;52.140;5.428;2023-04-02T00:12:12;101275.34;;;5.85;100.00
72116;BME280;59991;52.140;5.428;2023-04-02T00:12:58;101274.09;;;5.83;100.00
72116;BME280;59991;52.140;5.428;2023-04-02T00:13:42;101271.38;;;5.83;100.00
72116;BME280;59991;52.140;5.428;2023-04-02T00:14:30;101278.38;;;5.84;100.00
72116;BME280;59991;52.140;5.428;2023-04-02T00:15:03;101278.38;;;5.84;100.00
72116;BME280;59991;52.140;5.428;2023-04-02T00:15:39;101283.78;;;5.84;100.00
72116;BME280;59991;52.140;5.428;2023-04-02T00:16:13;101284.59;;;5.84;100.00
72116;BME280;59991;52.140;5.428;2023-04-02T00:16:47;101280.31;;;5.83;100.00
72116;BME280;59991;52.140;5.428;2023-04-02T00:17:22;101281.75;;;5.81;100.00
72116;BME280;59991;52.140;5.428;2023-04-02T00:17:55;101282.88;;;5.80;100.00
72116;BME280;59991;52.140;5.428;2023-04-02T00:18:27;101284.78;;;5.79;100.00
72116;BME280;59991;52.140;5.428;2023-04-02T00:19:03;101292.13;;;5.79;100.00
72116;BME280;59991;52.140;5.428;2023-04-02T00:19:41;101284.78;;;5.79;100.00
72116;BME280;59991;52.140;5.428;2023-04-02T00:20:15;101285.59;;;5.80;100.00
72116;BME280;59991;52.140;5.428;2023-04-02T00:20:52;101286.03;;;5.82;100.00
72116;BME280;59991;52.140;5.428;2023-04-02T00:21:28;101285.25;;;5.81;100.00
72116;BME280;59991;52.140;5.428;2023-04-02T00:22:04;101284.47;;;5.81;100.00
72116;BME280;59991;52.140;5.428;2023-04-02T00:22:43;101287.63;;;5.83;100.00
72116;BME280;59991;52.140;5.428;2023-04-02T00:23:14;101286.84;;;5.82;100.00
72116;BME280;59991;52.140;5.428;2023-04-02T00:23:46;101288.41;;;5.83;100.00
72116;BME280;59991;52.140;5.428;2023-04-02T00:24:20;101293.84;;;5.83;100.00
72116;BME280;59991;52.140;5.428;2023-04-02T00:24:53;101286.84;;;5.82;100.00
72116;BME280;59991;52.140;5.428;2023-04-02T00:25:26;101287.63;;;5.83;100.00
72116;BME280;59991;52.140;5.428;2023-04-02T00:25:58;101292.56;;;5.81;100.00
72116;BME280;59991;52.140;5.428;2023-04-02T00:26:36;101288.28;;;5.80;100.00
72116;BME280;59991;52.140;5.428;2023-04-02T00:27:11;101293.84;;;5.83;100.00
72116;BME280;59991;52.140;5.428;2023-04-02T00:27:43;101298.00;;;5.81;100.00
72116;BME280;59991;52.140;5.428;2023-04-02T00:28:17;101291.00;;;5.80;100.00
72116;BME280;59991;52.140;5.428;2023-04-02T00:28:52;101292.91;;;5.79;100.00
72116;BME280;59991;52.140;5.428;2023-04-02T00:29:24;101293.38;;;5.81;100.00
72116;BME280;59991;52.140;5.428;2023-04-02T00:29:57;101296.88;;;5.82;100.00
72116;BME280;59991;52.140;5.428;2023-04-02T00:30:29;101298.00;;;5.81;100.00
72116;BME280;59991;52.140;5.428;2023-04-02T00:31:00;101299.25;;;5.83;100.00
72116;BME280;59991;52.140;5.428;2023-04-02T00:31:33;101301.94;;;5.83;100.00
72116;BME280;59991;52.140;5.428;2023-04-02T00:32:05;101295.28;;;5.81;100.00
72116;BME280;59991;52.140;5.428;2023-04-02T00:32:36;101304.66;;;5.83;100.00
72116;BME280;59991;52.140;5.428;2023-04-02T00:33:14;101298.44;;;5.83;100.00
72116;BME280;59991;52.140;5.428;2023-04-02T00:33:48;101294.03;;;5.78;100.00
72116;BME280;59991;52.140;5.428;2023-04-02T00:34:23;101311.84;;;5.79;100.00
72116;BME280;59991;52.140;5.428;2023-04-02T00:34:56;101299.13;;;5.80;100.00
72116;BME280;59991;52.140;5.428;2023-04-02T00:35:29;101304.53;;;5.80;100.00
72116;BME280;59991;52.140;5.428;2023-04-02T00:36:04;101302.16;;;5.78;100.00
72116;BME280;59991;52.140;5.428;2023-04-02T00:36:37;101304.84;;;5.78;100.00
72116;BME280;59991;52.140;5.428;2023-04-02T00:37:16;101305.97;;;5.77;100.00
72116;BME280;59991;52.140;5.428;2023-04-02T00:37:49;101304.44;;;5.76;100.00
72116;BME280;59991;52.140;5.428;2023-04-02T00:38:26;101306.78;;;5.78;100.00
72116;BME280;59991;52.140;5.428;2023-04-02T00:39:01;101309.47;;;5.78;100.00
72116;BME280;59991;52.140;5.428;2023-04-02T00:39:37;101313.34;;;5.77;100.00
72116;BME280;59991;52.140;5.428;2023-04-02T00:40:29;101314.88;;;5.78;100.00
72116;BME280;59991;52.140;5.428;2023-04-02T00:41:04;101315.25;;;5.76;100.00
72116;BME280;59991;52.140;5.428;2023-04-02T00:41:36;101313.19;;;5.73;100.00
72116;BME280;59991;52.140;5.428;2023-04-02T00:42:11;101320.19;;;5.74;100.00
72116;BME280;59991;52.140;5.428;2023-04-02T00:42:43;101318.28;;;5.75;100.00
72116;BME280;59991;52.140;5.428;2023-04-02T00:43:15;101323.69;;;5.75;100.00
72116;BME280;59991;52.140;5.428;2023-04-02T00:43:47;101325.28;;;5.76;100.00
72116;BME280;59991;52.140;5.428;2023-04-02T00:44:21;101325.28;;;5.76;100.00
72116;BME280;59991;52.140;5.428;2023-04-02T00:44:53;101324.81;;;5.74;100.00
72116;BME280;59991;52.140;5.428;2023-04-02T00:45:29;101322.13;;;5.74;100.00
72116;BME280;59991;52.140;5.428;2023-04-02T00:46:03;101322.91;;;5.74;100.00
72116;BME280;59991;52.140;5.428;2023-04-02T00:46:42;101327.53;;;5.74;100.00
72116;BME280;59991;52.140;5.428;2023-04-02T00:47:22;101338.34;;;5.74;100.00
72116;BME280;59991;52.140;5.428;2023-04-02T00:47:56;101340.72;;;5.75;100.00
72116;BME280;59991;52.140;5.428;2023-04-02T00:49:09;101333.59;;;5.71;100.00
72116;BME280;59991;52.140;5.428;2023-04-02T00:49:45;101329.63;;;5.68;100.00
72116;BME280;59991;52.140;5.428;2023-04-02T00:50:29;101332.47;;;5.72;100.00
72116;BME280;59991;52.140;5.428;2023-04-02T00:51:15;101338.69;;;5.72;100.00
72116;BME280;59991;52.140;5.428;2023-04-02T00:51:53;101331.69;;;5.71;100.00
72116;BME280;59991;52.140;5.428;2023-04-02T00:52:29;101343.63;;;5.70;100.00
72116;BME280;59991;52.140;5.428;2023-04-02T00:53:16;101350.16;;;5.69;100.00
72116;BME280;59991;52.140;5.428;2023-04-02T00:53:53;101344.16;;;5.64;100.00
72116;BME280;59991;52.140;5.428;2023-04-02T00:54:30;101345.41;;;5.66;100.00
72116;BME280;59991;52.140;5.428;2023-04-02T00:55:11;101343.50;;;5.67;100.00
72116;BME280;59991;52.140;5.428;2023-04-02T00:55:45;101346.53;;;5.65;100.00
72116;BME280;59991;52.140;5.428;2023-04-02T00:56:25;101346.53;;;5.65;100.00
72116;BME280;59991;52.140;5.428;2023-04-02T00:56:58;101343.34;;;5.63;100.00
72116;BME280;59991;52.140;5.428;2023-04-02T00:57:32;101350.69;;;5.63;100.00
72116;BME280;59991;52.140;5.428;2023-04-02T00:58:22;101341.31;;;5.60;100.00
72116;BME280;59991;52.140;5.428;2023-04-02T00:58:56;101355.31;;;5.62;100.00
72116;BME280;59991;52.140;5.428;2023-04-02T00:59:34;101353.72;;;5.61;100.00
72116;BME280;59991;52.140;5.428;2023-04-02T01:00:21;101352.94;;;5.61;100.00
72116;BME280;59991;52.140;5.428;2023-04-02T01:00:54;101361.03;;;5.61;100.00
72116;BME280;59991;52.140;5.428;2023-04-02T01:01:32;101356.75;;;5.60;100.00
72116;BME280;59991;52.140;5.428;2023-04-02T01:04:00;101365.19;;;5.58;100.00
72116;BME280;59991;52.140;5.428;2023-04-02T01:04:33;101358.56;;;5.55;100.00
72116;BME280;59991;52.140;5.428;2023-04-02T01:06:35;101368.69;;;5.59;100.00
72116;BME280;59991;52.140;5.428;2023-04-02T01:07:09;101373.31;;;5.58;100.00
72116;BME280;59991;52.140;5.428;2023-04-02T01:07:59;101374.09;;;5.59;100.00
72116;BME280;59991;52.140;5.428;2023-04-02T01:08:42;101374.09;;;5.59;100.00
72116;BME280;59991;52.140;5.428;2023-04-02T01:10:01;101371.75;;;5.57;100.00
72116;BME280;59991;52.140;5.428;2023-04-02T01:11:59;101383.00;;;5.59;100.00
72116;BME280;59991;52.140;5.428;2023-04-02T01:12:52;101376.00;;;5.58;100.00
72116;BME280;59991;52.140;5.428;2023-04-02T01:13:45;101379.50;;;5.59;100.00
72116;BME280;59991;52.140;5.428;2023-04-02T01:14:41;101384.13;;;5.58;100.00
72116;BME280;59991;52.140;5.428;2023-04-02T01:15:21;101384.13;;;5.58;100.00
72116;BME280;59991;52.140;5.428;2023-04-02T01:16:56;101381.78;;;5.57;100.00
72116;BME280;59991;52.140;5.428;2023-04-02T01:17:43;101388.78;;;5.58;100.00
72116;BME280;59991;52.140;5.428;2023-04-02T01:18:55;101381.78;;;5.57;100.00
72116;BME280;59991;52.140;5.428;2023-04-02T01:21:02;101392.13;;;5.54;100.00
72116;BME280;59991;52.140;5.428;2023-04-02T01:21:43;101397.53;;;5.54;100.00
72116;BME280;59991;52.140;5.428;2023-04-02T01:23:07;101396.75;;;5.54;100.00
72116;BME280;59991;52.140;5.428;2023-04-02T01:23:52;101399.47;;;5.54;100.00
72116;BME280;59991;52.140;5.428;2023-04-02T01:24:29;101398.66;;;5.53;100.00
72116;BME280;59991;52.140;5.428;2023-04-02T01:25:02;101396.63;;;5.50;100.00
72116;BME280;59991;52.140;5.428;2023-04-02T01:25:53;101400.91;;;5.51;100.00
72116;BME280;59991;52.140;5.428;2023-04-02T01:26:55;101393.91;;;5.50;100.00
72116;BME280;59991;52.140;5.428;2023-04-02T01:27:33;101395.03;;;5.49;100.00
72116;BME280;59991;52.140;5.428;2023-04-02T01:28:31;101388.03;;;5.48;100.00
72116;BME280;59991;52.140;5.428;2023-04-02T01:29:10;101395.34;;;5.48;100.00
72116;BME280;59991;52.140;5.428;2023-04-02T01:29:46;101406.97;;;5.48;100.00
72116;BME280;59991;52.140;5.428;2023-04-02T01:30:19;101408.09;;;5.47;100.00
72116;BME280;59991;52.140;5.428;2023-04-02T01:30:54;101403.47;;;5.48;100.00
72116;BME280;59991;52.140;5.428;2023-04-02T01:31:27;101411.13;;;5.46;100.00
72116;BME280;59991;52.140;5.428;2023-04-02T01:32:06;101406.50;;;5.46;100.00
72116;BME280;59991;52.140;5.428;2023-04-02T01:32:41;101402.22;;;5.45;100.00
72116;BME280;59991;52.140;5.428;2023-04-02T01:33:13;101406.03;;;5.44;100.00
72116;BME280;59991;52.140;5.428;2023-04-02T01:33:45;101408.75;;;5.44;100.00
72116;BME280;59991;52.140;5.428;2023-04-02T01:34:19;101408.41;;;5.46;100.00
72116;BME280;59991;52.140;5.428;2023-04-02T01:34:53;101410.00;;;5.47;100.00
72116;BME280;59991;52.140;5.428;2023-04-02T01:35:29;101413.50;;;5.47;100.00
72116;BME280;59991;52.140;5.428;2023-04-02T01:36:10;101406.19;;;5.48;100.00
72116;BME280;59991;52.140;5.428;2023-04-02T01:37:42;101414.75;;;5.50;100.00
72116;BME280;59991;52.140;5.428;2023-04-02T01:38:25;101408.56;;;5.49;100.00
72116;BME280;59991;52.140;5.428;2023-04-02T01:39:24;101414.44;;;5.51;100.00
72116;BME280;59991;52.140;5.428;2023-04-02T01:40:04;101415.22;;;5.52;100.00
72116;BME280;59991;52.140;5.428;2023-04-02T01:40:57;101417.94;;;5.52;100.00
72116;BME280;59991;52.140;5.428;2023-04-02T01:41:40;101417.47;;;5.50;100.00
72116;BME280;59991;52.140;5.428;2023-04-02T01:43:36;101414.75;;;5.50;100.00
72116;BME280;59991;52.140;5.428;2023-04-02T01:44:22;101422.06;;;5.49;100.00
72116;BME280;59991;52.140;5.428;2023-04-02T01:45:19;101425.91;;;5.48;100.00
72116;BME280;59991;52.140;5.428;2023-04-02T01:45:52;101425.44;;;5.46;100.00
72116;BME280;59991;52.140;5.428;2023-04-02T01:46:31;101413.03;;;5.45;100.00
72116;BME280;59991;52.140;5.428;2023-04-02T01:47:04;101423.84;;;5.45;100.00
72116;BME280;59991;52.140;5.428;2023-04-02T01:47:39;101422.59;;;5.43;100.00
72116;BME280;59991;52.140;5.428;2023-04-02T01:48:16;101422.13;;;5.41;99.87
72116;BME280;59991;52.140;5.428;2023-04-02T01:48:52;101431.34;;;5.40;99.51
72116;BME280;59991;52.140;5.428;2023-04-02T01:49:25;101427.06;;;5.39;99.28
72116;BME280;59991;52.140;5.428;2023-04-02T01:50:06;101435.19;;;5.39;99.39
72116;BME280;59991;52.140;5.428;2023-04-02T01:50:44;101433.25;;;5.39;99.58
72116;BME280;59991;52.140;5.428;2023-04-02T01:51:29;101426.28;;;5.38;99.58
72116;BME280;59991;52.140;5.428;2023-04-02T01:52:01;101433.25;;;5.39;99.96
72116;BME280;59991;52.140;5.428;2023-04-02T01:52:39;101437.13;;;5.38;99.78
72116;BME280;59991;52.140;5.428;2023-04-02T01:53:14;101435.53;;;5.37;99.17
72116;BME280;59991;52.140;5.428;2023-04-02T01:53:46;101443.28;;;5.39;99.11
72116;BME280;59991;52.140;5.428;2023-04-02T01:54:19;101442.16;;;5.40;99.30
72116;BME280;59991;52.140;5.428;2023-04-02T01:54:51;101435.53;;;5.37;99.37
72116;BME280;59991;52.140;5.428;2023-04-02T01:55:48;101443.63;;;5.37;99.19
72116;BME280;59991;52.140;5.428;2023-04-02T01:56:21;101439.34;;;5.36;99.09
72116;BME280;59991;52.140;5.428;2023-04-02T01:56:52;101444.28;;;5.34;98.71
72116;BME280;59991;52.140;5.428;2023-04-02T01:57:26;101438.41;;;5.32;98.75
72116;BME280;59991;52.140;5.428;2023-04-02T01:57:59;101442.69;;;5.33;98.84
72116;BME280;59991;52.140;5.428;2023-04-02T01:58:31;101438.88;;;5.34;98.41
72116;BME280;59991;52.140;5.428;2023-04-02T01:59:04;101452.06;;;5.36;98.80
72116;BME280;59991;52.140;5.428;2023-04-02T01:59:36;101454.31;;;5.34;98.57
72116;BME280;59991;52.140;5.428;2023-04-02T02:00:12;101453.19;;;5.35;98.85
72116;BME280;59991;52.140;5.428;2023-04-02T02:00:49;101457.66;;;5.31;98.52
72116;BME280;59991;52.140;5.428;2023-04-02T02:01:27;101455.09;;;5.34;98.75
72116;BME280;59991;52.140;5.428;2023-04-02T02:02:03;101454.00;;;5.35;98.84
72116;BME280;59991;52.140;5.428;2023-04-02T02:02:35;101453.53;;;5.33;98.83
72116;BME280;59991;52.140;5.428;2023-04-02T02:03:10;101460.53;;;5.34;99.23
72116;BME280;59991;52.140;5.428;2023-04-02T02:03:43;101456.56;;;5.32;99.54
72116;BME280;59991;52.140;5.428;2023-04-02T02:04:15;101465.13;;;5.34;99.13
72116;BME280;59991;52.140;5.428;2023-04-02T02:04:47;101458.94;;;5.33;99.48
72116;BME280;59991;52.140;5.428;2023-04-02T02:05:20;101467.03;;;5.33;99.30
72116;BME280;59991;52.140;5.428;2023-04-02T02:05:53;101468.16;;;5.32;99.75
72116;BME280;59991;52.140;5.428;2023-04-02T02:06:26;101461.16;;;5.31;99.78
72116;BME280;59991;52.140;5.428;2023-04-02T02:06:58;101467.69;;;5.30;99.70
72116;BME280;59991;52.140;5.428;2023-04-02T02:07:31;101466.56;;;5.31;99.35
72116;BME280;59991;52.140;5.428;2023-04-02T02:08:15;101468.81;;;5.29;99.58
72116;BME280;59991;52.140;5.428;2023-04-02T02:08:58;101469.59;;;5.30;99.71
72116;BME280;59991;52.140;5.428;2023-04-02T02:09:33;101473.09;;;5.30;99.80
72116;BME280;59991;52.140;5.428;2023-04-02T02:10:09;101481.06;;;5.27;99.14
72116;BME280;59991;52.140;5.428;2023-04-02T02:10:44;101470.88;;;5.24;99.55
72116;BME280;59991;52.140;5.428;2023-04-02T02:11:18;101474.06;;;5.26;99.70
72116;BME280;59991;52.140;5.428;2023-04-02T02:11:51;101472.81;;;5.23;99.67
72116;BME280;59991;52.140;5.428;2023-04-02T02:12:23;101481.72;;;5.24;99.86
72116;BME280;59991;52.140;5.428;2023-04-02T02:12:56;101475.50;;;5.23;99.63
72116;BME280;59991;52.140;5.428;2023-04-02T02:13:30;101482.03;;;5.22;99.66
72116;BME280;59991;52.140;5.428;2023-04-02T02:14:11;101480.13;;;5.22;99.96
72116;BME280;59991;52.140;5.428;2023-04-02T02:14:48;101476.16;;;5.20;99.75
72116;BME280;59991;52.140;5.428;2023-04-02T02:15:22;101484.72;;;5.22;99.93
72116;BME280;59991;52.140;5.428;2023-04-02T02:15:57;101482.50;;;5.24;100.00
72116;BME280;59991;52.140;5.428;2023-04-02T02:16:29;101484.41;;;5.24;99.95
72116;BME280;59991;52.140;5.428;2023-04-02T02:17:03;101476.63;;;5.22;100.00
72116;BME280;59991;52.140;5.428;2023-04-02T02:17:43;101477.75;;;5.21;99.89
72116;BME280;59991;52.140;5.428;2023-04-02T02:18:19;101488.22;;;5.22;100.00
72116;BME280;59991;52.140;5.428;2023-04-02T02:19:00;101497.47;;;5.21;99.58
72116;BME280;59991;52.140;5.428;2023-04-02T02:19:38;101480.00;;;5.19;100.00
72116;BME280;59991;52.140;5.428;2023-04-02T02:20:13;101493.53;;;5.19;99.52
72116;BME280;59991;52.140;5.428;2023-04-02T02:20:45;101484.47;;;5.15;99.46
72116;BME280;59991;52.140;5.428;2023-04-02T02:22:07;101495.91;;;5.12;99.76
72116;BME280;59991;52.140;5.428;2023-04-02T02:22:46;101497.69;;;5.08;99.08
72116;BME280;59991;52.140;5.428;2023-04-02T02:23:19;101497.22;;;5.06;99.42
72116;BME280;59991;52.140;5.428;2023-04-02T02:23:51;101500.56;;;5.03;98.94
72116;BME280;59991;52.140;5.428;2023-04-02T02:24:26;101493.13;;;5.00;99.23
72116;BME280;59991;52.140;5.428;2023-04-02T02:25:02;101494.22;;;4.99;99.14
72116;BME280;59991;52.140;5.428;2023-04-02T02:25:35;101503.94;;;5.00;99.00
72116;BME280;59991;52.140;5.428;2023-04-02T02:26:10;101503.44;;;4.98;98.81
72116;BME280;59991;52.140;5.428;2023-04-02T02:26:43;101502.66;;;4.97;98.57
72116;BME280;59991;52.140;5.428;2023-04-02T02:28:40;101513.00;;;4.95;98.90
72116;BME280;59991;52.140;5.428;2023-04-02T02:29:17;101500.13;;;4.92;98.41
72116;BME280;59991;52.140;5.428;2023-04-02T02:29:54;101511.56;;;4.89;98.91
72116;BME280;59991;52.140;5.428;2023-04-02T02:30:30;101509.03;;;4.93;98.74
72116;BME280;59991;52.140;5.428;2023-04-02T02:31:06;101494.88;;;4.87;98.87
72116;BME280;59991;52.140;5.428;2023-04-02T02:31:44;101506.47;;;4.88;98.77
72116;BME280;59991;52.140;5.428;2023-04-02T02:32:19;101513.16;;;4.90;99.08
72116;BME280;59991;52.140;5.428;2023-04-02T02:33:19;101511.25;;;4.91;98.77
72116;BME280;59991;52.140;5.428;2023-04-02T02:33:57;101518.56;;;4.90;99.46
72116;BME280;59991;52.140;5.428;2023-04-02T02:34:36;101521.25;;;4.90;99.02
72116;BME280;59991;52.140;5.428;2023-04-02T02:35:19;101512.69;;;4.88;99.64
72116;BME280;59991;52.140;5.428;2023-04-02T02:35:58;101509.66;;;4.90;99.17
72116;BME280;59991;52.140;5.428;2023-04-02T02:36:46;101520.47;;;4.90;98.73
72116;BME280;59991;52.140;5.428;2023-04-02T02:37:27;101517.94;;;4.84;99.43
72116;BME280;59991;52.140;5.428;2023-04-02T02:39:33;101523.34;;;4.84;99.15
72116;BME280;59991;52.140;5.428;2023-04-02T02:40:15;101526.69;;;4.81;99.17
72116;BME280;59991;52.140;5.428;2023-04-02T02:40:52;101522.41;;;4.80;98.89
72116;BME280;59991;52.140;5.428;2023-04-02T02:41:32;101527.03;;;4.80;99.31
72116;BME280;59991;52.140;5.428;2023-04-02T02:42:25;101522.72;;;4.79;99.49
72116;BME280;59991;52.140;5.428;2023-04-02T02:43:01;101530.03;;;4.78;99.35
72116;BME280;59991;52.140;5.428;2023-04-02T02:43:38;101530.84;;;4.79;99.29
72116;BME280;59991;52.140;5.428;2023-04-02T02:44:18;101530.38;;;4.77;99.31
72116;BME280;59991;52.140;5.428;2023-04-02T02:44:53;101530.38;;;4.77;99.12
72116;BME280;59991;52.140;5.428;2023-04-02T02:45:28;101533.06;;;4.77;99.34
72116;BME280;59991;52.140;5.428;2023-04-02T02:46:03;101524.97;;;4.77;99.78
72116;BME280;59991;52.140;5.428;2023-04-02T02:46:39;101530.84;;;4.79;99.81
72116;BME280;59991;52.140;5.428;2023-04-02T02:47:47;101540.38;;;4.76;99.61
72116;BME280;59991;52.140;5.428;2023-04-02T02:48:22;101534.03;;;4.72;99.93
72116;BME280;59991;52.140;5.428;2023-04-02T02:48:58;101529.72;;;4.71;100.00
72116;BME280;59991;52.140;5.428;2023-04-02T02:49:39;101534.50;;;4.74;100.00
72116;BME280;59991;52.140;5.428;2023-04-02T02:50:21;101536.09;;;4.75;99.75
72116;BME280;59991;52.140;5.428;2023-04-02T02:50:54;101549.13;;;4.73;99.20
72116;BME280;59991;52.140;5.428;2023-04-02T02:51:37;101537.84;;;4.71;99.11
72116;BME280;59991;52.140;5.428;2023-04-02T02:52:14;101551.50;;;4.75;99.58
72116;BME280;59991;52.140;5.428;2023-04-02T02:52:53;101545.31;;;4.74;99.67
72116;BME280;59991;52.140;5.428;2023-04-02T02:53:26;101549.13;;;4.73;99.92
72116;BME280;59991;52.140;5.428;2023-04-02T02:54:01;101548.16;;;4.69;99.56
72116;BME280;59991;52.140;5.428;2023-04-02T02:54:35;101550.72;;;4.74;100.00
72116;BME280;59991;52.140;5.428;2023-04-02T02:55:23;101548.63;;;4.71;100.00
72116;BME280;59991;52.140;5.428;2023-04-02T02:55:58;101540.06;;;4.69;100.00
72116;BME280;59991;52.140;5.428;2023-04-02T02:56:33;101556.75;;;4.71;99.76
72116;BME280;59991;52.140;5.428;2023-04-02T02:57:11;101557.22;;;4.73;99.65
72116;BME280;59991;52.140;5.428;2023-04-02T02:57:54;101559.44;;;4.71;99.14
72116;BME280;59991;52.140;5.428;2023-04-02T02:58:30;101567.56;;;4.71;99.81
72116;BME280;59991;52.140;5.428;2023-04-02T02:59:04;101558.16;;;4.69;99.78
72116;BME280;59991;52.140;5.428;2023-04-02T02:59:38;101558.50;;;4.67;99.62
72116;BME280;59991;52.140;5.428;2023-04-02T03:00:11;101562.00;;;4.68;99.71
72116;BME280;59991;52.140;5.428;2023-04-02T03:00:44;101562.31;;;4.66;100.00
72116;BME280;59991;52.140;5.428;2023-04-02T03:01:17;101570.41;;;4.66;99.52
72116;BME280;59991;52.140;5.428;2023-04-02T03:01:49;101567.22;;;4.64;99.52
72116;BME280;59991;52.140;5.428;2023-04-02T03:02:22;101570.41;;;4.66;99.78
72116;BME280;59991;52.140;5.428;2023-04-02T03:02:55;101566.13;;;4.65;99.66
72116;BME280;59991;52.140;5.428;2023-04-02T03:03:29;101572.63;;;4.64;99.32
72116;BME280;59991;52.140;5.428;2023-04-02T03:04:03;101571.84;;;4.64;99.58
72116;BME280;59991;52.140;5.428;2023-04-02T03:04:34;101566.44;;;4.64;99.26
72116;BME280;59991;52.140;5.428;2023-04-02T03:05:07;101574.84;;;4.62;99.15
72116;BME280;59991;52.140;5.428;2023-04-02T03:05:39;101577.56;;;4.62;99.25
72116;BME280;59991;52.140;5.428;2023-04-02T03:06:14;101579.81;;;4.60;98.97
72116;BME280;59991;52.140;5.428;2023-04-02T03:06:49;101571.53;;;4.57;99.16
72116;BME280;59991;52.140;5.428;2023-04-02T03:07:24;101570.75;;;4.56;99.16
72116;BME280;59991;52.140;5.428;2023-04-02T03:07:57;101583.13;;;4.57;98.83
72116;BME280;59991;52.140;5.428;2023-04-02T03:08:35;101583.31;;;4.61;98.85
72116;BME280;59991;52.140;5.428;2023-04-02T03:09:21;101579.50;;;4.62;99.41
72116;BME280;59991;52.140;5.428;2023-04-02T03:10:18;101585.22;;;4.60;98.83
72116;BME280;59991;52.140;5.428;2023-04-02T03:11:01;101586.31;;;4.59;99.05
72116;BME280;59991;52.140;5.428;2023-04-02T03:11:39;101587.13;;;4.60;99.17
72116;BME280;59991;52.140;5.428;2023-04-02T03:12:30;101587.91;;;4.60;99.46
72116;BME280;59991;52.140;5.428;2023-04-02T03:13:31;101594.44;;;4.59;99.35
72116;BME280;59991;52.140;5.428;2023-04-02T03:14:19;101594.44;;;4.59;99.32
72116;BME280;59991;52.140;5.428;2023-04-02T03:15:50;101595.38;;;4.55;99.38
72116;BME280;59991;52.140;5.428;2023-04-02T03:16:33;101593.47;;;4.55;99.60
72116;BME280;59991;52.140;5.428;2023-04-02T03:17:13;101597.59;;;4.53;99.85
72116;BME280;59991;52.140;5.428;2023-04-02T03:18:09;101598.88;;;4.55;99.69
72116;BME280;59991;52.140;5.428;2023-04-02T03:18:53;101603.47;;;4.55;99.81
72116;BME280;59991;52.140;5.428;2023-04-02T03:19:42;101614.28;;;4.55;99.71
72116;BME280;59991;52.140;5.428;2023-04-02T03:20:26;101607.28;;;4.54;99.88
72116;BME280;59991;52.140;5.428;2023-04-02T03:21:48;101612.38;;;4.55;99.51
72116;BME280;59991;52.140;5.428;2023-04-02T03:22:28;101596.16;;;4.55;99.69
72116;BME280;59991;52.140;5.428;2023-04-02T03:24:18;101613.16;;;4.56;99.54
72116;BME280;59991;52.140;5.428;2023-04-02T03:25:56;101613.00;;;4.52;99.12
72116;BME280;59991;52.140;5.428;2023-04-02T03:26:45;101616.81;;;4.51;98.84
72116;BME280;59991;52.140;5.428;2023-04-02T03:27:22;101613.16;;;4.47;99.31
72116;BME280;59991;52.140;5.428;2023-04-02T03:28:03;101629.53;;;4.50;99.18
72116;BME280;59991;52.140;5.428;2023-04-02T03:28:42;101626.81;;;4.50;98.80
72116;BME280;59991;52.140;5.428;2023-04-02T03:29:19;101621.72;;;4.49;99.03
72116;BME280;59991;52.140;5.428;2023-04-02T03:30:55;101633.31;;;4.49;98.96
72116;BME280;59991;52.140;5.428;2023-04-02T03:31:46;101632.84;;;4.47;98.68
72116;BME280;59991;52.140;5.428;2023-04-02T03:32:25;101629.34;;;4.47;98.83
72116;BME280;59991;52.140;5.428;2023-04-02T03:33:03;101641.25;;;4.46;98.62
72116;BME280;59991;52.140;5.428;2023-04-02T03:33:39;101637.75;;;4.45;98.02
72116;BME280;59991;52.140;5.428;2023-04-02T03:34:23;101643.97;;;4.46;98.18
72116;BME280;59991;52.140;5.428;2023-04-02T03:35:00;101638.09;;;4.44;98.49
72116;BME280;59991;52.140;5.428;2023-04-02T03:35:40;101643.47;;;4.44;98.47
72116;BME280;59991;52.140;5.428;2023-04-02T03:36:19;101645.38;;;4.43;98.83
72116;BME280;59991;52.140;5.428;2023-04-02T03:37:00;101648.88;;;4.44;98.42
72116;BME280;59991;52.140;5.428;2023-04-02T03:37:42;101640.78;;;4.44;98.51
72116;BME280;59991;52.140;5.428;2023-04-02T03:38:22;101655.41;;;4.43;98.41
72116;BME280;59991;52.140;5.428;2023-04-02T03:39:43;101653.03;;;4.41;98.44
72116;BME280;59991;52.140;5.428;2023-04-02T03:40:21;101647.94;;;4.40;97.97
72116;BME280;59991;52.140;5.428;2023-04-02T03:41:21;101649.06;;;4.39;98.05
72116;BME280;59991;52.140;5.428;2023-04-02T03:42:16;101650.97;;;4.38;97.91
72116;BME280;59991;52.140;5.428;2023-04-02T03:42:56;101652.38;;;4.36;97.57
72116;BME280;59991;52.140;5.428;2023-04-02T03:43:35;101653.81;;;4.33;97.87
72116;BME280;59991;52.140;5.428;2023-04-02T03:44:25;101651.09;;;4.33;97.33
72116;BME280;59991;52.140;5.428;2023-04-02T03:45:12;101658.88;;;4.35;98.08
72116;BME280;59991;52.140;5.428;2023-04-02T03:45:49;101656.19;;;4.35;97.74
72116;BME280;59991;52.140;5.428;2023-04-02T03:46:38;101660.16;;;4.37;97.64
72116;BME280;59991;52.140;5.428;2023-04-02T03:49:58;101666.69;;;4.36;97.47